createdAt,value
2018-12-21T00:01:39.036Z,6.90
2018-12-21T00:04:07.303Z,6.90
2018-12-21T00:06:35.622Z,6.90
2018-12-21T00:09:05.361Z,6.90
2018-12-21T00:11:33.642Z,6.90
2018-12-21T00:14:01.913Z,6.90
2018-12-21T00:16:30.176Z,6.90
2018-12-21T00:18:58.483Z,6.90
2018-12-21T00:21:26.858Z,7.00
2018-12-21T00:23:55.262Z,6.90
2018-12-21T00:26:23.522Z,7.00
2018-12-21T00:28:53.021Z,7.00
2018-12-21T00:31:27.066Z,7.00
2018-12-21T00:34:00.992Z,7.00
2018-12-21T00:36:35.032Z,7.10
2018-12-21T00:39:10.753Z,7.00
2018-12-21T00:41:38.569Z,7.00
2018-12-21T00:44:08.822Z,6.90
2018-12-21T00:46:38.585Z,6.90
2018-12-21T00:49:06.861Z,7.00
2018-12-21T00:51:35.108Z,6.90
2018-12-21T00:54:03.579Z,6.90
2018-12-21T00:56:31.917Z,6.90
2018-12-21T00:59:00.407Z,6.90
2018-12-21T01:01:29.445Z,6.90
2018-12-21T01:03:57.789Z,6.90
2018-12-21T01:06:26.061Z,7.00
2018-12-21T01:08:54.321Z,7.00
2018-12-21T01:11:22.679Z,6.90
2018-12-21T01:13:51.149Z,6.90
2018-12-21T01:16:19.423Z,7.00
2018-12-21T01:18:47.875Z,7.00
2018-12-21T01:21:16.163Z,7.00
2018-12-21T01:23:44.409Z,7.00
2018-12-21T01:26:12.873Z,7.00
2018-12-21T01:28:41.241Z,7.10
2018-12-21T01:31:09.632Z,7.10
2018-12-21T01:33:37.981Z,7.10
2018-12-21T01:36:06.359Z,7.10
2018-12-21T01:38:34.738Z,7.10
2018-12-21T01:41:03.008Z,7.10
2018-12-21T01:43:31.300Z,7.00
2018-12-21T01:45:59.769Z,7.10
2018-12-21T01:48:28.013Z,7.00
2018-12-21T01:50:56.481Z,8.00
2018-12-21T01:53:24.833Z,7.00
2018-12-21T01:55:53.224Z,7.00
2018-12-21T01:58:21.590Z,7.00
2018-12-21T02:00:49.976Z,7.00
2018-12-21T02:03:18.549Z,7.00
2018-12-21T02:05:46.906Z,7.00
2018-12-21T02:08:17.093Z,7.10
2018-12-21T02:10:45.339Z,7.10
2018-12-21T02:13:15.508Z,7.10
2018-12-21T02:15:45.665Z,7.10
2018-12-21T02:18:15.833Z,7.10
2018-12-21T02:20:44.093Z,7.10
2018-12-21T02:23:12.513Z,7.10
2018-12-21T02:25:41.062Z,7.10
2018-12-21T02:28:09.345Z,7.10
2018-12-21T02:30:37.762Z,7.20
2018-12-21T02:33:06.033Z,7.20
2018-12-21T02:35:34.277Z,7.20
2018-12-21T02:38:02.551Z,7.20
2018-12-21T02:40:30.799Z,7.20
2018-12-21T02:42:59.221Z,7.20
2018-12-21T02:45:27.492Z,7.20
2018-12-21T02:47:55.849Z,7.20
2018-12-21T02:50:24.150Z,7.20
2018-12-21T02:52:52.409Z,7.20
2018-12-21T02:55:20.705Z,7.20
2018-12-21T02:57:48.984Z,7.30
2018-12-21T03:00:17.241Z,7.30
2018-12-21T03:02:45.671Z,7.30
2018-12-21T03:05:14.155Z,7.30
2018-12-21T03:07:42.997Z,7.30
2018-12-21T03:10:11.285Z,7.30
2018-12-21T03:12:39.619Z,7.30
2018-12-21T03:15:08.006Z,7.30
2018-12-21T03:17:36.362Z,7.30
2018-12-21T03:20:05.132Z,7.30
2018-12-21T03:22:33.589Z,7.30
2018-12-21T03:25:01.969Z,7.40
2018-12-21T03:27:30.230Z,7.40
2018-12-21T03:29:58.611Z,7.30
2018-12-21T03:32:27.059Z,7.30
2018-12-21T03:34:55.414Z,7.30
2018-12-21T03:37:23.874Z,7.40
2018-12-21T03:39:52.143Z,7.40
2018-12-21T03:42:20.408Z,7.40
2018-12-21T03:44:48.866Z,7.40
2018-12-21T03:47:17.249Z,7.40
2018-12-21T03:49:45.595Z,7.50
2018-12-21T03:52:13.953Z,7.50
2018-12-21T03:54:42.350Z,7.50
2018-12-21T03:57:10.617Z,7.60
2018-12-21T03:59:38.946Z,7.70
2018-12-21T04:02:07.273Z,7.70
2018-12-21T04:04:35.629Z,7.70
2018-12-21T04:07:04.055Z,7.80
2018-12-21T04:09:32.314Z,7.80
2018-12-21T04:12:00.784Z,7.80
2018-12-21T04:14:29.034Z,7.80
2018-12-21T04:16:57.329Z,7.90
2018-12-21T04:19:25.618Z,7.90
2018-12-21T04:21:54.150Z,7.90
2018-12-21T04:24:23.171Z,7.90
2018-12-21T04:26:51.427Z,7.90
2018-12-21T04:29:19.707Z,7.90
2018-12-21T04:31:48.160Z,8.00
2018-12-21T04:34:16.433Z,8.00
2018-12-21T04:36:44.710Z,6.90
2018-12-21T04:39:12.972Z,8.00
2018-12-21T04:41:41.247Z,8.00
2018-12-21T04:44:09.526Z,8.00
2018-12-21T04:46:37.953Z,8.00
2018-12-21T04:49:06.229Z,7.60
2018-12-21T04:51:34.598Z,8.00
2018-12-21T04:54:02.977Z,8.00
2018-12-21T04:56:31.227Z,8.00
2018-12-21T04:58:59.506Z,8.00
2018-12-21T05:01:27.748Z,8.00
2018-12-21T05:03:56.132Z,8.00
2018-12-21T05:06:24.396Z,8.00
2018-12-21T05:08:52.673Z,8.00
2018-12-21T05:11:20.934Z,8.00
2018-12-21T05:13:49.206Z,8.00
2018-12-21T05:16:17.470Z,8.10
2018-12-21T05:18:45.953Z,8.00
2018-12-21T05:21:14.226Z,8.10
2018-12-21T05:23:42.496Z,8.10
2018-12-21T05:26:10.847Z,8.10
2018-12-21T05:28:38.863Z,8.10
2018-12-21T05:31:06.584Z,8.00
2018-12-21T05:33:34.279Z,8.00
2018-12-21T05:36:02.313Z,8.00
2018-12-21T05:38:30.100Z,8.00
2018-12-21T05:40:57.842Z,7.90
2018-12-21T05:43:25.620Z,8.00
2018-12-21T05:48:21.272Z,8.00
2018-12-21T05:50:48.986Z,7.90
2018-12-21T05:53:16.718Z,7.90
2018-12-21T05:55:44.468Z,7.80
2018-12-21T05:58:12.185Z,7.80
2018-12-21T06:00:39.921Z,7.80
2018-12-21T06:03:07.609Z,7.70
2018-12-21T06:05:35.345Z,7.70
2018-12-21T06:08:03.149Z,7.60
2018-12-21T06:10:30.851Z,7.60
2018-12-21T06:12:58.773Z,7.60
2018-12-21T06:15:26.480Z,7.60
2018-12-21T06:17:54.224Z,7.60
2018-12-21T06:20:22.036Z,7.60
2018-12-21T06:22:49.770Z,7.50
2018-12-21T06:25:17.603Z,7.50
2018-12-21T06:27:45.516Z,7.50
2018-12-21T06:30:13.211Z,7.50
2018-12-21T06:32:40.956Z,7.50
2018-12-21T06:35:08.641Z,7.50
2018-12-21T06:37:36.477Z,7.50
2018-12-21T06:40:05.081Z,7.60
2018-12-21T06:42:32.817Z,7.50
2018-12-21T06:45:00.524Z,7.60
2018-12-21T06:52:23.513Z,7.70
2018-12-21T06:54:51.372Z,7.60
2018-12-21T07:02:14.365Z,7.70
2018-12-21T07:09:37.583Z,7.70
2018-12-21T07:12:05.392Z,7.60
2018-12-21T07:14:33.114Z,7.60
2018-12-21T07:17:00.817Z,7.60
2018-12-21T07:19:28.561Z,7.60
2018-12-21T07:21:56.273Z,7.60
2018-12-21T07:24:24.021Z,7.70
2018-12-21T07:26:51.806Z,7.70
2018-12-21T07:29:20.756Z,7.80
2018-12-21T07:31:48.590Z,7.80
2018-12-21T07:34:16.326Z,7.80
2018-12-21T07:36:44.025Z,7.90
2018-12-21T07:39:11.950Z,7.90
2018-12-21T07:41:39.772Z,7.90
2018-12-21T07:44:07.528Z,8.00
2018-12-21T07:46:35.519Z,8.10
2018-12-21T07:49:03.348Z,8.10
2018-12-21T07:51:31.052Z,8.20
2018-12-21T07:53:58.769Z,8.30
2018-12-21T07:56:26.510Z,8.20
2018-12-21T07:58:57.387Z,8.20
2018-12-21T08:01:23.970Z,8.20
2018-12-21T08:03:51.669Z,8.30
2018-12-21T08:06:19.409Z,8.30
2018-12-21T08:08:47.125Z,8.30
2018-12-21T08:11:14.864Z,8.90
2018-12-21T08:13:42.787Z,8.40
2018-12-21T08:16:10.605Z,8.40
2018-12-21T08:18:38.319Z,8.50
2018-12-21T08:21:06.045Z,8.50
2018-12-21T08:23:33.861Z,8.50
2018-12-21T08:26:01.955Z,8.50
2018-12-21T08:28:29.656Z,8.50
2018-12-21T08:30:57.387Z,8.50
2018-12-21T08:33:25.095Z,8.50
2018-12-21T08:35:53.052Z,8.50
2018-12-21T08:38:20.906Z,8.50
2018-12-21T08:40:49.682Z,8.50
2018-12-21T08:43:17.537Z,8.50
2018-12-21T08:45:45.432Z,8.50
2018-12-21T08:48:13.133Z,8.50
2018-12-21T08:50:40.829Z,8.50
2018-12-21T08:53:08.569Z,8.50
2018-12-21T08:55:36.256Z,8.50
2018-12-21T08:58:04.392Z,8.50
2018-12-21T09:00:32.094Z,8.60
2018-12-21T09:02:59.825Z,8.60
2018-12-21T09:05:27.638Z,8.70
2018-12-21T09:07:55.402Z,8.70
2018-12-21T09:10:23.114Z,8.70
2018-12-21T09:12:50.984Z,8.70
2018-12-21T09:15:19.653Z,8.70
2018-12-21T09:17:48.370Z,8.70
2018-12-21T09:20:16.638Z,8.70
2018-12-21T09:22:44.960Z,8.70
2018-12-21T09:25:13.231Z,8.70
2018-12-21T09:27:41.723Z,8.70
2018-12-21T09:30:11.301Z,8.70
2018-12-21T09:32:39.565Z,8.70
2018-12-21T09:35:08.158Z,8.70
2018-12-21T09:37:36.476Z,8.80
2018-12-21T09:40:07.998Z,8.80
2018-12-21T09:42:36.676Z,8.90
2018-12-21T09:45:05.564Z,8.90
2018-12-21T09:47:34.046Z,8.90
2018-12-21T09:50:02.754Z,8.90
2018-12-21T09:52:31.020Z,8.90
2018-12-21T09:54:59.653Z,8.90
2018-12-21T09:57:27.968Z,8.90
2018-12-21T09:59:56.334Z,8.90
2018-12-21T10:02:24.594Z,8.90
2018-12-21T10:04:52.969Z,8.90
2018-12-21T10:07:27.502Z,9.00
2018-12-21T10:09:51.585Z,8.90
2018-12-21T10:12:19.950Z,9.00
2018-12-21T10:14:48.646Z,9.10
2018-12-21T10:17:16.982Z,9.10
2018-12-21T10:19:45.240Z,9.10
2018-12-21T10:22:13.530Z,9.10
2018-12-21T10:24:41.863Z,9.20
2018-12-21T10:27:10.183Z,9.20
2018-12-21T10:29:38.435Z,9.20
2018-12-21T10:32:06.722Z,9.30
2018-12-21T10:34:34.993Z,9.30
2018-12-21T10:37:03.470Z,9.50
2018-12-21T10:39:31.822Z,9.50
2018-12-21T10:42:00.257Z,9.50
2018-12-21T10:44:28.536Z,9.60
2018-12-21T10:46:56.856Z,9.60
2018-12-21T10:49:25.131Z,9.60
2018-12-21T10:51:53.397Z,9.60
2018-12-21T10:54:26.773Z,9.60
2018-12-21T10:56:51.923Z,9.70
2018-12-21T10:59:21.204Z,9.70
2018-12-21T11:01:49.763Z,9.90
2018-12-21T11:04:18.122Z,9.90
2018-12-21T11:06:46.404Z,9.90
2018-12-21T11:09:14.771Z,9.90
2018-12-21T11:11:43.060Z,9.90
2018-12-21T11:14:11.301Z,9.80
2018-12-21T11:16:39.576Z,9.90
2018-12-21T11:19:07.859Z,9.90
2018-12-21T11:21:36.135Z,10.00
2018-12-21T11:24:04.553Z,10.00
2018-12-21T11:26:33.094Z,10.00
2018-12-21T11:29:01.480Z,10.10
2018-12-21T11:31:29.755Z,10.10
2018-12-21T11:33:58.330Z,10.10
2018-12-21T11:36:26.698Z,10.10
2018-12-21T11:38:54.998Z,10.20
2018-12-21T11:41:23.368Z,10.20
2018-12-21T11:43:51.658Z,10.30
2018-12-21T11:46:19.944Z,10.30
2018-12-21T11:48:48.500Z,10.70
2018-12-21T11:51:16.778Z,10.40
2018-12-21T11:53:45.165Z,10.50
2018-12-21T11:56:13.433Z,10.50
2018-12-21T11:58:41.726Z,10.60
2018-12-21T12:01:10.021Z,10.60
2018-12-21T12:03:38.339Z,10.70
2018-12-21T12:06:06.669Z,10.80
2018-12-21T12:08:34.942Z,10.90
2018-12-21T12:11:03.253Z,10.90
2018-12-21T12:13:35.609Z,11.00
2018-12-21T12:16:03.992Z,11.10
2018-12-21T12:18:32.561Z,11.20
2018-12-21T12:21:00.837Z,11.30
2018-12-21T12:23:29.126Z,11.30
2018-12-21T12:25:57.569Z,11.40
2018-12-21T12:28:25.818Z,11.40
2018-12-21T12:30:54.310Z,11.50
2018-12-21T12:33:22.612Z,11.60
2018-12-21T12:35:50.946Z,11.70
2018-12-21T12:38:19.208Z,11.80
2018-12-21T12:40:51.587Z,11.90
2018-12-21T12:43:20.034Z,11.90
2018-12-21T12:45:48.354Z,11.90
2018-12-21T12:48:16.873Z,12.00
2018-12-21T12:50:45.413Z,12.00
2018-12-21T12:53:13.640Z,12.00
2018-12-21T12:55:42.035Z,12.00
2018-12-21T12:58:10.331Z,12.00
2018-12-21T13:00:38.589Z,12.00
2018-12-21T13:03:06.846Z,12.00
2018-12-21T13:05:35.247Z,12.00
2018-12-21T13:08:03.605Z,12.00
2018-12-21T13:10:31.862Z,12.00
2018-12-21T13:13:00.373Z,12.10
2018-12-21T13:15:28.648Z,12.10
2018-12-21T13:17:56.929Z,12.20
2018-12-21T13:20:25.197Z,12.30
2018-12-21T13:22:53.663Z,12.30
2018-12-21T13:25:22.179Z,12.40
2018-12-21T13:27:50.430Z,12.40
2018-12-21T13:30:18.714Z,12.50
2018-12-21T13:32:47.070Z,12.60
2018-12-21T13:35:15.366Z,12.70
2018-12-21T13:37:43.694Z,12.60
2018-12-21T13:40:12.069Z,12.70
2018-12-21T13:42:40.350Z,12.70
2018-12-21T13:45:08.916Z,12.70
2018-12-21T13:47:37.226Z,12.70
2018-12-21T13:50:08.200Z,12.70
2018-12-21T13:52:36.509Z,12.70
2018-12-21T13:55:04.961Z,12.80
2018-12-21T13:57:33.364Z,12.70
2018-12-21T14:00:02.813Z,12.70
2018-12-21T14:02:31.169Z,12.70
2018-12-21T14:04:59.482Z,12.70
2018-12-21T14:07:27.743Z,12.70
2018-12-21T14:09:56.034Z,12.70
2018-12-21T14:12:24.299Z,12.70
2018-12-21T14:14:52.590Z,12.70
2018-12-21T14:17:21.063Z,12.60
2018-12-21T14:19:49.365Z,12.60
2018-12-21T14:22:17.734Z,12.60
2018-12-21T14:24:46.001Z,12.60
2018-12-21T14:27:14.287Z,12.60
2018-12-21T14:29:42.578Z,12.60
2018-12-21T14:32:10.938Z,12.60
2018-12-21T14:34:39.233Z,12.60
2018-12-21T14:37:07.493Z,12.60
2018-12-21T14:39:36.057Z,12.60
2018-12-21T14:42:05.313Z,12.70
2018-12-21T14:44:33.609Z,12.60
2018-12-21T14:47:01.960Z,12.50
2018-12-21T14:49:30.237Z,12.50
2018-12-21T14:51:58.537Z,12.40
2018-12-21T14:54:26.817Z,12.40
2018-12-21T14:56:55.106Z,12.50
2018-12-21T14:59:23.384Z,12.50
2018-12-21T15:01:51.696Z,12.40
2018-12-21T15:04:20.035Z,12.30
2018-12-21T15:06:48.531Z,12.40
2018-12-21T15:09:16.809Z,12.40
2018-12-21T15:11:45.135Z,12.30
2018-12-21T15:16:46.190Z,12.30
2018-12-21T15:19:14.576Z,12.30
2018-12-21T15:21:42.950Z,12.30
2018-12-21T15:24:11.205Z,12.20
2018-12-21T15:26:39.816Z,12.20
2018-12-21T15:29:08.133Z,12.20
2018-12-21T15:31:36.422Z,12.30
2018-12-21T15:34:04.698Z,12.20
2018-12-21T15:36:33.182Z,12.20
2018-12-21T15:39:01.471Z,12.30
2018-12-21T15:41:29.804Z,12.20
2018-12-21T15:43:58.061Z,12.20
2018-12-21T15:46:26.796Z,12.20
2018-12-21T15:48:55.094Z,12.10
2018-12-21T15:51:23.398Z,12.00
2018-12-21T15:53:51.683Z,12.00
2018-12-21T15:56:19.957Z,11.90
2018-12-21T15:58:48.337Z,11.90
2018-12-21T16:01:16.596Z,11.90
2018-12-21T16:03:44.902Z,12.00
2018-12-21T16:06:13.187Z,12.00
2018-12-21T16:08:41.493Z,12.00
2018-12-21T16:11:09.766Z,12.00
2018-12-21T16:13:38.182Z,12.00
2018-12-21T16:16:06.547Z,12.00
2018-12-21T16:18:34.835Z,12.00
2018-12-21T16:21:03.217Z,12.10
2018-12-21T16:23:31.506Z,12.10
2018-12-21T16:26:03.682Z,12.00
2018-12-21T16:28:30.478Z,12.10
2018-12-21T16:30:58.791Z,12.00
2018-12-21T16:33:27.266Z,12.00
2018-12-21T16:35:55.573Z,12.00
2018-12-21T16:38:23.878Z,12.00
2018-12-21T16:40:52.342Z,11.90
2018-12-21T16:43:22.069Z,11.70
2018-12-21T16:45:50.589Z,11.40
2018-12-21T16:48:18.836Z,11.10
2018-12-21T16:50:47.215Z,10.80
2018-12-21T16:53:15.518Z,10.70
2018-12-21T16:55:43.817Z,10.50
2018-12-21T16:58:12.114Z,10.40
2018-12-21T17:00:40.425Z,10.30
2018-12-21T17:03:15.649Z,10.20
2018-12-21T17:05:39.015Z,10.20
2018-12-21T17:08:07.381Z,10.10
2018-12-21T17:10:35.704Z,10.20
2018-12-21T17:13:04.154Z,10.20
2018-12-21T17:15:32.418Z,10.20
2018-12-21T17:18:00.721Z,10.10
2018-12-21T17:20:29.022Z,10.10
2018-12-21T17:22:57.740Z,10.10
2018-12-21T17:25:26.022Z,10.00
2018-12-21T17:27:54.111Z,10.00
2018-12-21T17:30:22.157Z,10.10
2018-12-21T17:32:50.880Z,10.10
2018-12-21T17:35:19.454Z,10.20
2018-12-21T17:37:47.835Z,10.20
2018-12-21T17:40:16.089Z,10.20
2018-12-21T17:42:44.498Z,10.30
2018-12-21T17:45:12.795Z,10.30
2018-12-21T17:47:41.193Z,10.30
2018-12-21T17:50:09.596Z,10.30
2018-12-21T17:52:37.919Z,10.40
2018-12-21T17:55:06.724Z,10.50
2018-12-21T17:57:35.029Z,10.50
2018-12-21T18:00:06.707Z,10.50
2018-12-21T18:02:34.990Z,10.50
2018-12-21T18:05:03.890Z,10.50
2018-12-21T18:07:32.334Z,10.60
2018-12-21T18:10:00.725Z,10.60
2018-12-21T18:12:29.004Z,10.60
2018-12-21T18:14:57.301Z,10.70
2018-12-21T18:17:25.701Z,10.70
2018-12-21T18:19:54.296Z,10.70
2018-12-21T18:22:22.556Z,10.70
2018-12-21T18:24:50.941Z,10.70
2018-12-21T18:27:19.212Z,10.70
2018-12-21T18:29:47.537Z,10.80
2018-12-21T18:32:17.307Z,10.80
2018-12-21T18:34:45.640Z,10.80
2018-12-21T18:37:13.919Z,10.80
2018-12-21T18:39:42.317Z,10.80
2018-12-21T18:42:10.685Z,10.90
2018-12-21T18:44:39.295Z,10.90
2018-12-21T18:47:07.568Z,10.90
2018-12-21T18:49:35.878Z,10.90
2018-12-21T18:52:04.348Z,10.90
2018-12-21T18:54:32.642Z,10.90
2018-12-21T18:57:00.942Z,10.90
2018-12-21T18:59:29.330Z,10.90
2018-12-21T19:01:57.634Z,10.90
2018-12-21T19:04:25.933Z,10.90
2018-12-21T19:06:54.211Z,10.90
2018-12-21T19:09:22.569Z,10.90
2018-12-21T19:11:50.874Z,10.90
2018-12-21T19:14:19.139Z,10.90
2018-12-21T19:16:47.456Z,10.90
2018-12-21T19:19:15.730Z,10.90
2018-12-21T19:21:44.125Z,11.00
2018-12-21T19:24:12.470Z,11.00
2018-12-21T19:26:40.860Z,11.00
2018-12-21T19:29:09.138Z,11.00
2018-12-21T19:31:37.469Z,11.00
2018-12-21T19:34:06.034Z,11.00
2018-12-21T19:36:34.653Z,11.00
2018-12-21T19:39:04.278Z,11.00
2018-12-21T19:41:32.619Z,10.90
2018-12-21T19:44:00.986Z,10.90
2018-12-21T19:46:29.294Z,10.90
2018-12-21T19:48:57.715Z,10.80
2018-12-21T19:51:26.102Z,10.70
2018-12-21T19:53:54.410Z,10.70
2018-12-21T19:56:24.140Z,10.60
2018-12-21T19:58:52.621Z,10.50
2018-12-21T20:01:20.977Z,10.30
2018-12-21T20:03:49.303Z,10.10
2018-12-21T20:06:17.569Z,9.90
2018-12-21T20:08:46.173Z,9.80
2018-12-21T20:11:14.523Z,9.60
2018-12-21T20:13:42.876Z,9.50
2018-12-21T20:16:11.162Z,9.50
2018-12-21T20:18:39.706Z,9.40
2018-12-21T20:21:08.039Z,9.30
2018-12-21T20:23:36.289Z,9.30
2018-12-21T20:26:04.625Z,9.30
2018-12-21T20:28:33.003Z,9.30
2018-12-21T20:31:01.379Z,9.20
2018-12-21T20:33:30.185Z,9.20
2018-12-21T20:35:58.549Z,9.20
2018-12-21T20:38:27.026Z,9.20
2018-12-21T20:40:56.882Z,9.20
2018-12-21T20:43:25.351Z,9.30
2018-12-21T20:45:53.661Z,9.40
2018-12-21T20:48:21.928Z,9.50
2018-12-21T20:50:50.215Z,9.60
2018-12-21T20:53:18.519Z,9.60
2018-12-21T20:55:51.333Z,9.70
2018-12-21T20:58:23.402Z,9.70
2018-12-21T21:00:51.914Z,9.70
2018-12-21T21:03:20.384Z,9.70
2018-12-21T21:05:48.733Z,9.80
2018-12-21T21:08:17.130Z,9.90
2018-12-21T21:10:45.435Z,9.80
2018-12-21T21:13:19.228Z,9.90
2018-12-21T21:15:44.102Z,9.90
2018-12-21T21:18:12.807Z,9.90
2018-12-21T21:20:41.420Z,10.00
2018-12-21T21:23:09.710Z,10.00
2018-12-21T21:25:37.989Z,10.00
2018-12-21T21:28:06.375Z,10.00
2018-12-21T21:30:36.569Z,10.00
2018-12-21T21:33:04.841Z,10.00
2018-12-21T21:35:33.326Z,10.00
2018-12-21T21:38:01.770Z,10.00
2018-12-21T21:40:30.330Z,10.00
2018-12-21T21:42:58.614Z,9.80
2018-12-21T21:45:27.026Z,9.70
2018-12-21T21:47:55.387Z,9.60
2018-12-21T21:50:23.756Z,9.60
2018-12-21T21:52:52.490Z,9.60
2018-12-21T21:55:21.026Z,9.60
2018-12-21T21:57:50.238Z,9.60
2018-12-21T22:00:18.622Z,9.60
2018-12-21T22:02:47.078Z,9.70
2018-12-21T22:05:15.350Z,9.80
2018-12-21T22:07:43.819Z,9.90
2018-12-21T22:10:12.401Z,9.90
2018-12-21T22:12:40.822Z,10.00
2018-12-21T22:15:09.154Z,10.10
2018-12-21T22:17:37.686Z,10.20
2018-12-21T22:20:07.980Z,10.20
2018-12-21T22:22:36.374Z,10.20
2018-12-21T22:25:04.715Z,10.20
2018-12-21T22:27:33.150Z,10.10
2018-12-21T22:30:01.449Z,10.00
2018-12-21T22:32:29.826Z,9.90
2018-12-21T22:34:58.124Z,9.80
2018-12-21T22:37:26.545Z,9.70
2018-12-21T22:39:55.258Z,9.60
2018-12-21T22:42:23.514Z,9.50
2018-12-21T22:44:51.843Z,9.40
2018-12-21T22:47:20.150Z,9.30
2018-12-21T22:49:48.606Z,9.20
2018-12-21T22:52:16.878Z,9.20
2018-12-21T22:54:45.143Z,9.20
2018-12-21T22:57:13.461Z,9.20
2018-12-21T22:59:41.755Z,9.20
2018-12-21T23:02:10.046Z,9.20
2018-12-21T23:04:38.336Z,9.20
2018-12-21T23:07:06.577Z,9.20
2018-12-21T23:09:34.861Z,9.30
2018-12-21T23:12:03.143Z,9.40
2018-12-21T23:14:31.746Z,9.40
2018-12-21T23:17:00.221Z,9.40
2018-12-21T23:19:28.538Z,9.40
2018-12-21T23:21:56.815Z,9.30
2018-12-21T23:24:25.104Z,9.30
2018-12-21T23:26:53.445Z,9.30
2018-12-21T23:29:21.707Z,9.30
2018-12-21T23:31:50.011Z,9.30
2018-12-21T23:34:18.265Z,9.30
2018-12-21T23:36:46.653Z,9.30
2018-12-21T23:39:14.994Z,9.30
2018-12-21T23:41:43.290Z,9.30
2018-12-21T23:44:11.561Z,9.40
2018-12-21T23:46:39.882Z,9.40
2018-12-21T23:49:08.139Z,9.50
2018-12-21T23:51:36.444Z,9.50
2018-12-21T23:54:04.702Z,9.50
2018-12-21T23:56:32.976Z,9.60
2018-12-21T23:59:01.286Z,9.60
